createdAt,value
2019-06-04T00:00:09.052Z,0.00
2019-06-04T00:01:21.905Z,0.00
2019-06-04T00:02:09.035Z,0.00
2019-06-04T00:03:09.020Z,0.00
2019-06-04T00:04:09.010Z,0.00
2019-06-04T00:05:09.010Z,0.00
2019-06-04T00:06:08.991Z,0.00
2019-06-04T00:07:08.977Z,0.00
2019-06-04T00:08:08.968Z,0.00
2019-06-04T00:09:08.960Z,0.00
2019-06-04T00:10:08.952Z,0.00
2019-06-04T00:11:08.940Z,0.00
2019-06-04T00:12:08.930Z,0.00
2019-06-04T00:13:08.917Z,0.00
2019-06-04T00:14:08.915Z,0.00
2019-06-04T00:15:08.900Z,0.00
2019-06-04T00:16:08.904Z,0.00
2019-06-04T00:17:08.882Z,0.00
2019-06-04T00:18:08.894Z,0.00
2019-06-04T00:19:08.864Z,0.00
2019-06-04T00:20:08.847Z,0.00
2019-06-04T00:21:08.849Z,0.00
2019-06-04T00:22:08.839Z,0.00
2019-06-04T00:23:08.819Z,0.00
2019-06-04T00:24:08.815Z,0.00
2019-06-04T00:25:08.798Z,0.00
2019-06-04T00:26:09.691Z,0.00
2019-06-04T00:27:08.774Z,0.00
2019-06-04T00:28:08.769Z,0.00
2019-06-04T00:29:08.760Z,0.00
2019-06-04T00:30:08.774Z,0.00
2019-06-04T00:31:08.735Z,0.00
2019-06-04T00:32:08.727Z,0.00
2019-06-04T00:33:08.713Z,0.00
2019-06-04T00:34:09.197Z,0.00
2019-06-04T00:35:08.896Z,0.00
2019-06-04T00:36:09.076Z,0.00
2019-06-04T00:37:08.681Z,0.00
2019-06-04T00:38:08.992Z,0.00
2019-06-04T00:39:08.963Z,0.00
2019-06-04T00:40:08.845Z,0.00
2019-06-04T00:41:09.243Z,0.00
2019-06-04T00:42:09.013Z,0.00
2019-06-04T00:43:09.684Z,0.00
2019-06-04T00:44:09.261Z,0.00
2019-06-04T00:45:09.301Z,0.00
2019-06-04T00:46:09.359Z,0.00
2019-06-04T00:47:09.437Z,0.00
2019-06-04T00:48:09.482Z,0.00
2019-06-04T00:49:09.354Z,0.00
2019-06-04T00:50:09.343Z,0.00
2019-06-04T00:51:10.122Z,0.00
2019-06-04T00:52:09.373Z,0.00
2019-06-04T00:53:09.492Z,0.00
2019-06-04T00:54:09.233Z,0.00
2019-06-04T00:55:08.502Z,0.00
2019-06-04T00:56:08.618Z,0.00
2019-06-04T00:57:08.476Z,0.00
2019-06-04T00:58:08.765Z,0.00
2019-06-04T00:59:08.466Z,0.00
2019-06-04T01:00:08.927Z,0.00
2019-06-04T01:01:08.437Z,0.00
2019-06-04T01:02:09.076Z,0.00
2019-06-04T01:03:08.413Z,0.00
2019-06-04T01:04:13.390Z,0.00
2019-06-04T01:05:08.395Z,0.00
2019-06-04T01:06:08.393Z,0.00
2019-06-04T01:07:08.377Z,0.00
2019-06-04T01:08:20.654Z,0.00
2019-06-04T01:09:08.355Z,0.00
2019-06-04T01:10:08.343Z,0.00
2019-06-04T01:11:08.337Z,0.00
2019-06-04T01:12:08.330Z,0.00
2019-06-04T01:13:09.923Z,0.00
2019-06-04T01:14:08.648Z,0.00
2019-06-04T01:15:24.676Z,0.00
2019-06-04T01:16:08.601Z,0.00
2019-06-04T01:17:08.685Z,0.00
2019-06-04T01:18:08.819Z,0.00
2019-06-04T01:19:08.940Z,0.00
2019-06-04T01:20:08.847Z,0.00
2019-06-04T01:21:09.201Z,0.00
2019-06-04T01:22:09.104Z,0.00
2019-06-04T01:23:09.479Z,0.00
2019-06-04T01:24:09.366Z,0.00
2019-06-04T01:25:09.310Z,0.00
2019-06-04T01:26:09.598Z,0.00
2019-06-04T01:27:08.170Z,0.00
2019-06-04T01:28:08.159Z,0.00
2019-06-04T01:29:08.163Z,0.00
2019-06-04T01:30:08.138Z,0.00
2019-06-04T01:31:08.531Z,0.00
2019-06-04T01:32:20.314Z,0.00
2019-06-04T01:33:08.456Z,0.00
2019-06-04T01:34:08.517Z,0.00
2019-06-04T01:35:08.415Z,0.00
2019-06-04T01:36:08.699Z,0.00
2019-06-04T01:37:08.527Z,0.00
2019-06-04T01:38:08.833Z,0.00
2019-06-04T01:39:08.926Z,0.00
2019-06-04T01:40:09.332Z,0.00
2019-06-04T01:41:09.305Z,0.00
2019-06-04T01:42:09.027Z,0.00
2019-06-04T01:43:09.281Z,0.00
2019-06-04T01:44:09.417Z,0.00
2019-06-04T01:45:07.988Z,0.00
2019-06-04T01:46:07.997Z,0.00
2019-06-04T01:47:07.966Z,0.00
2019-06-04T01:48:08.107Z,0.00
2019-06-04T01:49:08.952Z,0.00
2019-06-04T01:50:08.229Z,0.00
2019-06-04T01:51:08.431Z,0.00
2019-06-04T01:52:08.220Z,0.00
2019-06-04T01:53:08.626Z,0.00
2019-06-04T01:54:08.426Z,0.00
2019-06-04T01:55:08.648Z,0.00
2019-06-04T01:56:08.797Z,0.00
2019-06-04T01:57:08.695Z,0.00
2019-06-04T01:58:09.746Z,0.00
2019-06-04T01:59:08.982Z,0.00
2019-06-04T02:00:25.202Z,0.00
2019-06-04T02:01:09.118Z,0.00
2019-06-04T02:02:07.810Z,0.00
2019-06-04T02:03:07.800Z,0.00
2019-06-04T02:04:07.796Z,0.00
2019-06-04T02:05:08.340Z,0.00
2019-06-04T02:06:07.858Z,0.00
2019-06-04T02:07:07.853Z,0.00
2019-06-04T02:08:08.778Z,0.00
2019-06-04T02:09:08.163Z,0.00
2019-06-04T02:10:09.704Z,0.00
2019-06-04T02:11:08.362Z,0.00
2019-06-04T02:12:13.265Z,0.00
2019-06-04T02:13:08.623Z,0.00
2019-06-04T02:14:08.832Z,0.00
2019-06-04T02:15:09.132Z,0.00
2019-06-04T02:16:18.603Z,0.00
2019-06-04T02:17:07.722Z,0.00
2019-06-04T02:18:07.962Z,0.00
2019-06-04T02:19:07.763Z,0.00
2019-06-04T02:20:08.031Z,0.00
2019-06-04T02:21:08.106Z,0.00
2019-06-04T02:22:07.943Z,0.00
2019-06-04T02:23:08.373Z,0.00
2019-06-04T02:24:07.832Z,0.00
2019-06-04T02:25:08.114Z,0.00
2019-06-04T02:26:08.410Z,0.00
2019-06-04T02:27:08.228Z,0.00
2019-06-04T02:28:08.516Z,0.00
2019-06-04T02:29:08.242Z,0.00
2019-06-04T02:30:09.146Z,0.00
2019-06-04T02:31:08.430Z,0.00
2019-06-04T02:32:08.565Z,0.00
2019-06-04T02:33:13.861Z,0.00
2019-06-04T02:34:08.595Z,0.00
2019-06-04T02:35:08.628Z,0.00
2019-06-04T02:36:08.780Z,0.00
2019-06-04T02:37:08.652Z,0.00
2019-06-04T02:38:08.756Z,0.00
2019-06-04T02:39:07.965Z,0.00
2019-06-04T02:40:07.414Z,0.00
2019-06-04T02:41:08.160Z,0.00
2019-06-04T02:42:07.394Z,0.00
2019-06-04T02:43:08.244Z,0.00
2019-06-04T02:44:07.694Z,0.00
2019-06-04T02:45:08.289Z,0.00
2019-06-04T02:46:08.351Z,0.00
2019-06-04T02:47:08.395Z,0.00
2019-06-04T02:48:07.710Z,0.00
2019-06-04T02:49:07.318Z,0.00
2019-06-04T02:50:08.009Z,0.00
2019-06-04T02:51:07.298Z,0.00
2019-06-04T02:52:07.627Z,0.00
2019-06-04T02:53:07.322Z,0.00
2019-06-04T02:54:07.557Z,0.00
2019-06-04T02:55:07.438Z,0.00
2019-06-04T02:56:08.069Z,0.00
2019-06-04T02:57:07.691Z,0.00
2019-06-04T02:58:07.992Z,0.00
2019-06-04T02:59:08.069Z,0.00
2019-06-04T03:00:08.243Z,0.00
2019-06-04T03:01:08.881Z,0.00
2019-06-04T03:02:08.328Z,0.00
2019-06-04T03:03:22.275Z,0.00
2019-06-04T03:04:08.437Z,0.00
2019-06-04T03:05:07.146Z,0.00
2019-06-04T03:06:07.173Z,0.00
2019-06-04T03:07:07.130Z,0.00
2019-06-04T03:08:07.119Z,0.00
2019-06-04T03:09:07.107Z,4.00
2019-06-04T03:10:07.095Z,0.00
2019-06-04T03:11:07.092Z,0.00
2019-06-04T03:12:07.080Z,0.00
2019-06-04T03:13:07.068Z,0.00
2019-06-04T03:14:07.055Z,4.00
2019-06-04T03:15:07.051Z,0.00
2019-06-04T03:16:07.032Z,0.00
2019-06-04T03:17:07.023Z,0.00
2019-06-04T03:18:07.022Z,0.00
2019-06-04T03:19:07.004Z,0.00
2019-06-04T03:20:06.996Z,4.00
2019-06-04T03:21:06.980Z,4.00
2019-06-04T03:22:06.968Z,4.00
2019-06-04T03:23:06.964Z,4.00
2019-06-04T03:24:06.946Z,4.00
2019-06-04T03:25:06.935Z,4.00
2019-06-04T03:26:06.934Z,4.00
2019-06-04T03:27:06.919Z,8.00
2019-06-04T03:28:06.909Z,4.00
2019-06-04T03:29:06.917Z,4.00
2019-06-04T03:30:06.884Z,8.00
2019-06-04T03:31:06.878Z,4.00
2019-06-04T03:32:06.861Z,8.00
2019-06-04T03:33:06.865Z,8.00
2019-06-04T03:34:06.850Z,8.00
2019-06-04T03:35:06.855Z,8.00
2019-06-04T03:36:06.825Z,8.00
2019-06-04T03:37:06.811Z,12.00
2019-06-04T03:38:06.807Z,12.00
2019-06-04T03:39:06.794Z,12.00
2019-06-04T03:40:06.779Z,12.00
2019-06-04T03:41:06.763Z,16.00
2019-06-04T03:42:06.756Z,16.00
2019-06-04T03:43:06.741Z,12.00
2019-06-04T03:44:06.741Z,12.00
2019-06-04T03:45:06.719Z,16.00
2019-06-04T03:46:07.127Z,16.00
2019-06-04T03:47:06.707Z,20.00
2019-06-04T03:48:06.701Z,20.00
2019-06-04T03:49:06.687Z,20.00
2019-06-04T03:50:06.676Z,24.00
2019-06-04T03:51:06.667Z,20.00
2019-06-04T03:52:06.652Z,24.00
2019-06-04T03:53:06.644Z,24.00
2019-06-04T03:54:06.624Z,24.00
2019-06-04T03:55:06.615Z,28.00
2019-06-04T03:56:06.610Z,28.00
2019-06-04T03:57:06.601Z,32.00
2019-06-04T03:58:06.588Z,32.00
2019-06-04T03:59:06.579Z,32.00
2019-06-04T04:00:06.571Z,32.00
2019-06-04T04:01:06.563Z,36.00
2019-06-04T04:02:06.552Z,36.00
2019-06-04T04:03:06.946Z,36.00
2019-06-04T04:04:08.416Z,40.00
2019-06-04T04:05:06.514Z,44.00
2019-06-04T04:06:06.500Z,44.00
2019-06-04T04:07:06.490Z,48.00
2019-06-04T04:08:06.497Z,48.00
2019-06-04T04:09:06.473Z,48.00
2019-06-04T04:10:06.459Z,52.00
2019-06-04T04:11:06.450Z,52.00
2019-06-04T04:12:06.438Z,56.00
2019-06-04T04:13:06.430Z,60.00
2019-06-04T04:14:07.343Z,56.00
2019-06-04T04:15:06.414Z,64.00
2019-06-04T04:16:06.400Z,64.00
2019-06-04T04:17:06.383Z,68.00
2019-06-04T04:18:06.375Z,72.00
2019-06-04T04:19:06.378Z,72.00
2019-06-04T04:20:06.356Z,80.00
2019-06-04T04:21:06.349Z,80.00
2019-06-04T04:22:06.332Z,84.00
2019-06-04T04:23:06.324Z,84.00
2019-06-04T04:24:06.309Z,88.00
2019-06-04T04:25:06.317Z,88.00
2019-06-04T04:26:06.293Z,92.00
2019-06-04T04:27:06.280Z,92.00
2019-06-04T04:28:06.266Z,96.00
2019-06-04T04:29:06.261Z,100.00
2019-06-04T04:30:06.249Z,100.00
2019-06-04T04:31:06.233Z,104.00
2019-06-04T04:32:06.232Z,104.00
2019-06-04T04:33:06.224Z,104.00
2019-06-04T04:34:06.205Z,104.00
2019-06-04T04:35:06.198Z,112.00
2019-06-04T04:36:06.191Z,112.00
2019-06-04T04:37:06.176Z,116.00
2019-06-04T04:38:06.163Z,116.00
2019-06-04T04:39:06.151Z,116.00
2019-06-04T04:40:06.141Z,120.00
2019-06-04T04:41:06.129Z,124.00
2019-06-04T04:42:06.119Z,124.00
2019-06-04T04:43:06.114Z,128.00
2019-06-04T04:44:06.104Z,132.00
2019-06-04T04:45:06.096Z,132.00
2019-06-04T04:46:06.082Z,136.00
2019-06-04T04:47:06.070Z,136.00
2019-06-04T04:48:06.067Z,140.00
2019-06-04T04:49:06.050Z,144.00
2019-06-04T04:50:06.044Z,144.00
2019-06-04T04:51:06.028Z,148.00
2019-06-04T04:52:06.016Z,152.00
2019-06-04T04:53:06.009Z,152.00
2019-06-04T04:54:06.033Z,156.00
2019-06-04T04:55:05.989Z,160.00
2019-06-04T04:56:05.985Z,164.00
2019-06-04T04:57:05.974Z,164.00
2019-06-04T04:58:05.959Z,168.00
2019-06-04T04:59:05.950Z,172.00
2019-06-04T05:00:05.935Z,172.00
2019-06-04T05:01:05.930Z,172.00
2019-06-04T05:02:05.918Z,176.00
2019-06-04T05:03:05.904Z,180.00
2019-06-04T05:04:05.897Z,180.00
2019-06-04T05:05:05.883Z,180.00
2019-06-04T05:06:05.878Z,184.00
2019-06-04T05:07:05.867Z,188.00
2019-06-04T05:08:05.857Z,188.00
2019-06-04T05:09:05.846Z,188.00
2019-06-04T05:10:05.851Z,188.00
2019-06-04T05:11:05.822Z,188.00
2019-06-04T05:12:05.811Z,188.00
2019-06-04T05:13:05.806Z,188.00
2019-06-04T05:14:05.798Z,188.00
2019-06-04T05:15:05.784Z,184.00
2019-06-04T05:16:05.781Z,184.00
2019-06-04T05:17:05.771Z,184.00
2019-06-04T05:18:05.753Z,184.00
2019-06-04T05:19:06.515Z,184.00
2019-06-04T05:20:05.735Z,184.00
2019-06-04T05:21:05.726Z,188.00
2019-06-04T05:22:05.709Z,188.00
2019-06-04T05:23:05.700Z,188.00
2019-06-04T05:24:05.696Z,188.00
2019-06-04T05:25:05.685Z,184.00
2019-06-04T05:26:05.679Z,188.00
2019-06-04T05:27:05.666Z,188.00
2019-06-04T05:28:05.648Z,184.00
2019-06-04T05:29:05.641Z,184.00
2019-06-04T05:30:05.866Z,188.00
2019-06-04T05:31:05.621Z,184.00
2019-06-04T05:32:05.610Z,188.00
2019-06-04T05:33:05.605Z,188.00
2019-06-04T05:34:05.590Z,184.00
2019-06-04T05:35:05.719Z,188.00
2019-06-04T05:36:05.571Z,192.00
2019-06-04T05:37:05.566Z,192.00
2019-06-04T05:38:05.553Z,192.00
2019-06-04T05:39:05.543Z,196.00
2019-06-04T05:40:05.536Z,196.00
2019-06-04T05:41:05.525Z,196.00
2019-06-04T05:42:05.514Z,196.00
2019-06-04T05:43:05.500Z,196.00
2019-06-04T05:44:05.496Z,196.00
2019-06-04T05:45:05.943Z,196.00
2019-06-04T05:46:05.472Z,196.00
2019-06-04T05:47:05.475Z,196.00
2019-06-04T05:48:05.460Z,200.00
2019-06-04T05:49:06.112Z,204.00
2019-06-04T05:50:05.441Z,204.00
2019-06-04T05:51:05.417Z,208.00
2019-06-04T05:52:05.415Z,208.00
2019-06-04T05:53:05.398Z,208.00
2019-06-04T05:54:05.422Z,208.00
2019-06-04T05:55:05.391Z,212.00
2019-06-04T05:56:05.377Z,216.00
2019-06-04T05:57:05.369Z,220.00
2019-06-04T05:58:05.350Z,228.00
2019-06-04T05:59:05.350Z,256.00
2019-06-04T06:00:05.340Z,340.00
2019-06-04T06:01:05.327Z,408.00
2019-06-04T06:02:05.323Z,420.00
2019-06-04T06:03:05.297Z,404.00
2019-06-04T06:04:05.290Z,428.00
2019-06-04T06:05:22.731Z,428.00
2019-06-04T06:06:05.274Z,432.00
2019-06-04T06:07:05.260Z,440.00
2019-06-04T06:08:05.256Z,440.00
2019-06-04T06:09:05.245Z,444.00
2019-06-04T06:10:05.236Z,448.00
2019-06-04T06:11:05.222Z,448.00
2019-06-04T06:12:05.211Z,452.00
2019-06-04T06:13:05.233Z,456.00
2019-06-04T06:14:05.198Z,456.00
2019-06-04T06:15:08.851Z,460.00
2019-06-04T06:16:05.188Z,460.00
2019-06-04T06:17:05.203Z,464.00
2019-06-04T06:18:05.149Z,468.00
2019-06-04T06:19:05.144Z,472.00
2019-06-04T06:20:05.136Z,480.00
2019-06-04T06:21:05.548Z,480.00
2019-06-04T06:22:05.121Z,476.00
2019-06-04T06:23:11.548Z,484.00
2019-06-04T06:24:05.099Z,488.00
2019-06-04T06:25:05.270Z,492.00
2019-06-04T06:26:05.077Z,500.00
2019-06-04T06:27:05.077Z,504.00
2019-06-04T06:28:05.062Z,504.00
2019-06-04T06:29:05.048Z,512.00
2019-06-04T06:30:05.049Z,516.00
2019-06-04T06:31:05.029Z,520.00
2019-06-04T06:32:05.016Z,524.00
2019-06-04T06:33:05.018Z,532.00
2019-06-04T06:34:05.007Z,540.00
2019-06-04T06:35:05.493Z,544.00
2019-06-04T06:36:04.993Z,552.00
2019-06-04T06:37:04.975Z,548.00
2019-06-04T06:38:04.970Z,552.00
2019-06-04T06:39:04.954Z,552.00
2019-06-04T06:40:04.948Z,560.00
2019-06-04T06:41:04.942Z,564.00
2019-06-04T06:42:05.948Z,568.00
2019-06-04T06:43:04.920Z,572.00
2019-06-04T06:44:04.915Z,580.00
2019-06-04T06:45:04.899Z,584.00
2019-06-04T06:46:04.896Z,588.00
2019-06-04T06:47:04.885Z,592.00
2019-06-04T06:48:05.095Z,592.00
2019-06-04T06:49:04.876Z,596.00
2019-06-04T06:50:04.868Z,600.00
2019-06-04T06:51:04.861Z,604.00
2019-06-04T06:52:05.067Z,608.00
2019-06-04T06:53:04.834Z,612.00
2019-06-04T06:54:04.824Z,616.00
2019-06-04T06:55:04.813Z,624.00
2019-06-04T06:56:04.807Z,628.00
2019-06-04T06:57:04.801Z,632.00
2019-06-04T06:58:04.790Z,636.00
2019-06-04T06:59:04.775Z,640.00
2019-06-04T07:00:04.774Z,644.00
2019-06-04T07:01:04.764Z,644.00
2019-06-04T07:02:23.446Z,648.00
2019-06-04T07:03:04.747Z,652.00
2019-06-04T07:04:04.738Z,656.00
2019-06-04T07:05:04.730Z,656.00
2019-06-04T07:06:04.728Z,664.00
2019-06-04T07:07:04.715Z,668.00
2019-06-04T07:08:04.710Z,668.00
2019-06-04T07:09:04.698Z,672.00
2019-06-04T07:10:04.689Z,676.00
2019-06-04T07:11:08.578Z,688.00
2019-06-04T07:12:04.671Z,692.00
2019-06-04T07:13:04.662Z,696.00
2019-06-04T07:14:04.654Z,700.00
2019-06-04T07:15:04.644Z,704.00
2019-06-04T07:16:04.651Z,712.00
2019-06-04T07:17:04.631Z,716.00
2019-06-04T07:18:04.647Z,716.00
2019-06-04T07:19:04.618Z,724.00
2019-06-04T07:20:04.604Z,724.00
2019-06-04T07:21:04.604Z,728.00
2019-06-04T07:22:04.597Z,736.00
2019-06-04T07:23:04.584Z,740.00
2019-06-04T07:24:04.573Z,740.00
2019-06-04T07:25:05.076Z,744.00
2019-06-04T07:26:04.554Z,748.00
2019-06-04T07:27:04.579Z,756.00
2019-06-04T07:28:04.645Z,760.00
2019-06-04T07:29:04.531Z,764.00
2019-06-04T07:30:04.525Z,768.00
2019-06-04T07:31:04.535Z,780.00
2019-06-04T07:32:04.510Z,784.00
2019-06-04T07:33:04.498Z,788.00
2019-06-04T07:34:04.504Z,792.00
2019-06-04T07:35:04.487Z,800.00
2019-06-04T07:36:21.674Z,808.00
2019-06-04T07:37:04.474Z,832.00
2019-06-04T07:38:04.460Z,836.00
2019-06-04T07:39:04.456Z,844.00
2019-06-04T07:40:06.150Z,844.00
2019-06-04T07:41:04.442Z,852.00
2019-06-04T07:42:04.430Z,860.00
2019-06-04T07:43:04.427Z,860.00
2019-06-04T07:44:04.417Z,868.00
2019-06-04T07:45:04.412Z,876.00
2019-06-04T07:46:04.397Z,880.00
2019-06-04T07:47:04.394Z,880.00
2019-06-04T07:48:04.385Z,884.00
2019-06-04T07:49:04.378Z,888.00
2019-06-04T07:50:04.377Z,864.00
2019-06-04T07:51:04.361Z,868.00
2019-06-04T07:52:04.352Z,872.00
2019-06-04T07:53:04.348Z,880.00
2019-06-04T07:54:04.470Z,884.00
2019-06-04T07:55:04.332Z,892.00
2019-06-04T07:56:06.073Z,896.00
2019-06-04T07:57:04.309Z,896.00
2019-06-04T07:58:04.312Z,900.00
2019-06-04T07:59:04.296Z,908.00
2019-06-04T08:00:04.289Z,928.00
2019-06-04T08:01:04.285Z,940.00
2019-06-04T08:02:08.172Z,948.00
2019-06-04T08:03:04.269Z,940.00
2019-06-04T08:04:04.263Z,928.00
2019-06-04T08:05:04.258Z,944.00
2019-06-04T08:06:04.247Z,948.00
2019-06-04T08:07:09.253Z,944.00
2019-06-04T08:08:04.229Z,948.00
2019-06-04T08:09:04.214Z,952.00
2019-06-04T08:10:04.209Z,960.00
2019-06-04T08:11:04.277Z,964.00
2019-06-04T08:12:04.199Z,972.00
2019-06-04T08:13:04.196Z,976.00
2019-06-04T08:14:04.182Z,976.00
2019-06-04T08:15:04.173Z,984.00
2019-06-04T08:16:04.167Z,984.00
2019-06-04T08:17:04.165Z,988.00
2019-06-04T08:18:04.148Z,992.00
2019-06-04T08:19:04.146Z,1000.00
2019-06-04T08:20:06.651Z,1000.00
2019-06-04T08:21:04.123Z,1004.00
2019-06-04T08:22:04.120Z,1004.00
2019-06-04T08:23:04.114Z,1004.00
2019-06-04T08:24:04.100Z,1012.00
2019-06-04T08:25:04.111Z,1012.00
2019-06-04T08:26:04.095Z,1016.00
2019-06-04T08:27:04.084Z,1024.00
2019-06-04T08:28:04.078Z,1028.00
2019-06-04T08:29:04.072Z,1028.00
2019-06-04T08:30:04.059Z,1032.00
2019-06-04T08:31:04.053Z,1036.00
2019-06-04T08:32:04.051Z,1036.00
2019-06-04T08:33:04.038Z,1044.00
2019-06-04T08:34:04.035Z,1044.00
2019-06-04T08:35:04.024Z,1048.00
2019-06-04T08:36:04.020Z,1048.00
2019-06-04T08:37:08.042Z,1056.00
2019-06-04T08:38:04.000Z,1056.00
2019-06-04T08:39:04.015Z,1060.00
2019-06-04T08:40:03.998Z,1072.00
2019-06-04T08:41:03.991Z,1076.00
2019-06-04T08:42:03.982Z,1064.00
2019-06-04T08:43:04.026Z,1068.00
2019-06-04T08:44:03.959Z,1072.00
2019-06-04T08:45:05.114Z,1072.00
2019-06-04T08:46:03.943Z,1076.00
2019-06-04T08:47:03.946Z,1076.00
2019-06-04T08:48:03.936Z,912.00
2019-06-04T08:49:03.926Z,912.00
2019-06-04T08:50:03.914Z,908.00
2019-06-04T08:51:03.907Z,904.00
2019-06-04T08:52:03.905Z,900.00
2019-06-04T08:53:03.900Z,908.00
2019-06-04T08:54:03.892Z,912.00
2019-06-04T08:55:03.878Z,908.00
2019-06-04T08:56:03.874Z,1092.00
2019-06-04T08:57:03.872Z,1100.00
2019-06-04T08:58:03.865Z,1092.00
2019-06-04T08:59:03.854Z,1112.00
2019-06-04T09:00:03.852Z,1112.00
2019-06-04T09:01:03.839Z,1112.00
2019-06-04T09:02:03.836Z,1112.00
2019-06-04T09:03:03.822Z,1112.00
2019-06-04T09:04:03.819Z,1072.00
2019-06-04T09:05:03.809Z,980.00
2019-06-04T09:06:03.807Z,984.00
2019-06-04T09:07:03.793Z,996.00
2019-06-04T09:08:03.793Z,1008.00
2019-06-04T09:09:03.784Z,1016.00
2019-06-04T09:10:05.854Z,1032.00
2019-06-04T09:11:03.783Z,1044.00
2019-06-04T09:12:03.763Z,1052.00
2019-06-04T09:13:03.754Z,1056.00
2019-06-04T09:14:03.749Z,1060.00
2019-06-04T09:15:03.739Z,1068.00
2019-06-04T09:16:03.745Z,1072.00
2019-06-04T09:17:03.734Z,1072.00
2019-06-04T09:18:03.728Z,1000.00
2019-06-04T09:19:03.713Z,1076.00
2019-06-04T09:20:03.753Z,984.00
2019-06-04T09:21:03.704Z,988.00
2019-06-04T09:22:03.695Z,1000.00
2019-06-04T09:23:03.694Z,1012.00
2019-06-04T09:24:03.684Z,1024.00
2019-06-04T09:25:03.679Z,1036.00
2019-06-04T09:26:03.669Z,1104.00
2019-06-04T09:27:07.387Z,1088.00
2019-06-04T09:28:03.655Z,1084.00
2019-06-04T09:29:03.653Z,1084.00
2019-06-04T09:30:03.643Z,1112.00
2019-06-04T09:31:04.274Z,1112.00
2019-06-04T09:32:03.633Z,1112.00
2019-06-04T09:33:03.622Z,1120.00
2019-06-04T09:34:03.617Z,1116.00
2019-06-04T09:35:03.658Z,1124.00
2019-06-04T09:36:03.623Z,1124.00
2019-06-04T09:37:03.676Z,1124.00
2019-06-04T09:38:09.634Z,1120.00
2019-06-04T09:39:03.581Z,1120.00
2019-06-04T09:40:03.585Z,1116.00
2019-06-04T09:41:03.565Z,1120.00
2019-06-04T09:42:03.560Z,1116.00
2019-06-04T09:43:03.554Z,1096.00
2019-06-04T09:44:03.549Z,1104.00
2019-06-04T09:45:03.542Z,1104.00
2019-06-04T09:46:03.537Z,1108.00
2019-06-04T09:47:03.534Z,1104.00
2019-06-04T09:48:03.522Z,1108.00
2019-06-04T09:49:03.529Z,1108.00
2019-06-04T09:50:03.509Z,1112.00
2019-06-04T09:51:03.554Z,1104.00
2019-06-04T09:52:03.497Z,1100.00
2019-06-04T09:53:03.490Z,1100.00
2019-06-04T09:54:03.482Z,1100.00
2019-06-04T09:55:03.791Z,1108.00
2019-06-04T09:56:03.470Z,1112.00
2019-06-04T09:57:03.467Z,1116.00
2019-06-04T09:58:28.632Z,1120.00
2019-06-04T09:59:03.451Z,1124.00
2019-06-04T10:00:03.445Z,1128.00
2019-06-04T10:01:06.214Z,1132.00
2019-06-04T10:02:03.439Z,1132.00
2019-06-04T10:03:04.412Z,1144.00
2019-06-04T10:04:03.423Z,1152.00
2019-06-04T10:05:03.433Z,1156.00
2019-06-04T10:06:03.411Z,1156.00
2019-06-04T10:07:03.408Z,1168.00
2019-06-04T10:08:11.731Z,1168.00
2019-06-04T10:09:03.396Z,1180.00
2019-06-04T10:10:03.383Z,1192.00
2019-06-04T10:11:03.375Z,1208.00
2019-06-04T10:12:05.918Z,1216.00
2019-06-04T10:13:03.369Z,1228.00
2019-06-04T10:14:03.362Z,1224.00
2019-06-04T10:15:03.354Z,1220.00
2019-06-04T10:16:03.348Z,1212.00
2019-06-04T10:17:03.342Z,1208.00
2019-06-04T10:18:03.336Z,1216.00
2019-06-04T10:19:03.332Z,1052.00
2019-06-04T10:20:03.323Z,1232.00
2019-06-04T10:21:03.317Z,1232.00
2019-06-04T10:22:03.330Z,1240.00
2019-06-04T10:23:03.398Z,1232.00
2019-06-04T10:24:03.300Z,1236.00
2019-06-04T10:25:03.296Z,1228.00
2019-06-04T10:26:23.451Z,1236.00
2019-06-04T10:27:03.286Z,1244.00
2019-06-04T10:28:03.319Z,1256.00
2019-06-04T10:29:08.873Z,1276.00
2019-06-04T10:30:03.268Z,1296.00
2019-06-04T10:31:03.261Z,1296.00
2019-06-04T10:32:03.255Z,868.00
2019-06-04T10:33:08.552Z,1300.00
2019-06-04T10:34:03.242Z,1296.00
2019-06-04T10:35:03.245Z,1296.00
2019-06-04T10:36:03.229Z,1288.00
2019-06-04T10:37:19.463Z,1296.00
2019-06-04T10:38:03.219Z,1208.00
2019-06-04T10:39:03.212Z,1124.00
2019-06-04T10:40:03.203Z,788.00
2019-06-04T10:41:03.207Z,1204.00
2019-06-04T10:42:03.198Z,1408.00
2019-06-04T10:43:03.201Z,964.00
2019-06-04T10:44:03.189Z,692.00
2019-06-04T10:45:06.989Z,632.00
2019-06-04T10:46:03.187Z,1468.00
2019-06-04T10:47:03.180Z,1172.00
2019-06-04T10:48:03.164Z,1360.00
2019-06-04T10:49:03.153Z,1460.00
2019-06-04T10:50:03.154Z,1432.00
2019-06-04T10:51:03.155Z,1412.00
2019-06-04T10:52:03.143Z,1404.00
2019-06-04T10:53:03.141Z,1412.00
2019-06-04T10:54:03.144Z,1396.00
2019-06-04T10:55:03.129Z,1404.00
2019-06-04T10:56:03.125Z,1404.00
2019-06-04T10:57:03.113Z,1404.00
2019-06-04T10:58:03.107Z,1412.00
2019-06-04T10:59:03.095Z,1424.00
2019-06-04T11:00:03.101Z,1428.00
2019-06-04T11:01:03.135Z,1432.00
2019-06-04T11:02:03.082Z,1432.00
2019-06-04T11:03:03.080Z,1440.00
2019-06-04T11:04:03.077Z,1452.00
2019-06-04T11:05:03.073Z,1452.00
2019-06-04T11:06:03.068Z,1452.00
2019-06-04T11:07:04.171Z,1456.00
2019-06-04T11:08:03.057Z,1464.00
2019-06-04T11:09:10.322Z,1468.00
2019-06-04T11:10:03.046Z,656.00
2019-06-04T11:11:03.043Z,1484.00
2019-06-04T11:12:03.039Z,816.00
2019-06-04T11:13:03.027Z,1520.00
2019-06-04T11:14:04.282Z,1552.00
2019-06-04T11:15:03.022Z,1540.00
2019-06-04T11:16:03.017Z,1536.00
2019-06-04T11:17:03.016Z,1572.00
2019-06-04T11:18:03.010Z,1564.00
2019-06-04T11:19:03.004Z,1564.00
2019-06-04T11:20:03.075Z,1568.00
2019-06-04T11:21:02.984Z,1064.00
2019-06-04T11:22:02.994Z,1628.00
2019-06-04T11:23:02.971Z,1652.00
2019-06-04T11:24:02.979Z,616.00
2019-06-04T11:25:02.982Z,708.00
2019-06-04T11:26:02.995Z,1688.00
2019-06-04T11:27:02.968Z,1708.00
2019-06-04T11:28:02.969Z,768.00
2019-06-04T11:29:02.952Z,936.00
2019-06-04T11:30:02.955Z,996.00
2019-06-04T11:31:02.948Z,688.00
2019-06-04T11:32:02.950Z,1780.00
2019-06-04T11:33:02.930Z,1760.00
2019-06-04T11:34:23.042Z,984.00
2019-06-04T11:35:02.913Z,1548.00
2019-06-04T11:36:05.073Z,1840.00
2019-06-04T11:37:02.906Z,1832.00
2019-06-04T11:38:03.026Z,1852.00
2019-06-04T11:39:17.833Z,688.00
2019-06-04T11:40:02.895Z,1788.00
2019-06-04T11:41:02.887Z,1808.00
2019-06-04T11:42:02.883Z,1808.00
2019-06-04T11:43:10.825Z,1820.00
2019-06-04T11:44:02.882Z,1260.00
2019-06-04T11:45:21.922Z,1888.00
2019-06-04T11:46:02.861Z,1896.00
2019-06-04T11:47:02.890Z,1124.00
2019-06-04T11:48:02.854Z,748.00
2019-06-04T11:49:02.850Z,676.00
2019-06-04T11:50:02.841Z,1344.00
2019-06-04T11:51:02.890Z,684.00
2019-06-04T11:52:02.830Z,800.00
2019-06-04T11:53:02.828Z,1988.00
2019-06-04T11:54:03.412Z,1964.00
2019-06-04T11:55:02.818Z,1972.00
2019-06-04T11:56:02.833Z,1992.00
2019-06-04T11:57:02.813Z,2032.00
2019-06-04T11:58:02.807Z,1220.00
2019-06-04T11:59:03.380Z,1612.00
2019-06-04T12:00:03.137Z,1988.00
2019-06-04T12:01:14.723Z,2020.00
2019-06-04T12:02:03.037Z,2044.00
2019-06-04T12:03:03.745Z,1088.00
2019-06-04T12:04:02.972Z,1988.00
2019-06-04T12:05:05.731Z,1984.00
2019-06-04T12:06:02.987Z,1988.00
2019-06-04T12:07:04.527Z,2012.00
2019-06-04T12:08:03.798Z,2036.00
2019-06-04T12:09:03.643Z,664.00
2019-06-04T12:10:03.418Z,652.00
2019-06-04T12:11:03.458Z,656.00
2019-06-04T12:12:40.917Z,668.00
2019-06-04T12:13:03.457Z,684.00
2019-06-04T12:14:03.359Z,700.00
2019-06-04T12:15:04.503Z,708.00
2019-06-04T12:16:03.968Z,724.00
2019-06-04T12:17:04.362Z,732.00
2019-06-04T12:18:04.799Z,768.00
2019-06-04T12:19:04.222Z,1016.00
2019-06-04T12:20:04.026Z,2204.00
2019-06-04T12:21:13.937Z,780.00
2019-06-04T12:22:03.949Z,800.00
2019-06-04T12:24:03.967Z,2180.00
2019-06-04T12:25:05.864Z,2184.00
2019-06-04T12:26:04.380Z,2168.00
2019-06-04T12:27:02.927Z,2164.00
2019-06-04T12:28:03.315Z,2156.00
2019-06-04T12:29:02.882Z,2152.00
2019-06-04T12:30:02.785Z,2156.00
2019-06-04T12:31:02.698Z,2148.00
2019-06-04T12:32:03.189Z,2168.00
2019-06-04T12:33:03.146Z,2188.00
2019-06-04T12:34:04.456Z,2216.00
2019-06-04T12:35:03.218Z,2188.00
2019-06-04T12:36:03.029Z,1520.00
2019-06-04T12:37:03.101Z,2156.00